Portada
METAR-TAF:

METAR-TAF

Aeroports :

Kununurra, Austràlia

latitud: 15-46S, longitud: 128-42E, altitud: 44 m

Observació

L'informe es va fer fa 41 minuts, a les 23:30 UTC
Vent 5 kt del Nord
Temperatura 31°C
Humitat 59%
Pressió 1011 hPa
Visibilitat 10 km o més

METAR: YPKU 012330Z AUTO 36005KT 9999 // NCD 31/22 Q1011 RF00.0/000.0

Hora: 08:11 (00:11 UTC)

Pronòstic

L'informe es va fer fa 5 hores i 9 minuts, a les 19:02 UTC
Pronòstic vàlid del 01 a les 20 UTC al 02 a les 08 UTC
Vent 6 kt del Nord/Nord-Oest
Visibilitat 10 km o més
sense núvols per sota de 1500 mi sense presència de cumulonimbus.

TAF: YPKU 011902Z 0120/0208 34006KT CAVOK

Observacions i pronòstics meteorològics de més de 4000 aeroports (METAR i TAF).

Les estacions disponibles són els punts grocs i vermells al mapa.

Posi el ratolí al punt desitjat per veure el nom de l'estació.

Feu clic per veure les observacions i els pronòstics meteorològics.

Per canviar el mapa: feu clic els botons verds amb una creu de color negre per apropar; al botó verd amb un guió per allunyar la imatge; o en les fletxes verdes per a mapes adjacents.


METAR-TAF: